sensor_id;sensor_type;location;lat;lon;timestamp;temperature;humidity
68922;DHT22;55959;51.244;5.724;2023-02-15T00:00:31;6.70;65.70
68922;DHT22;55959;51.244;5.724;2023-02-15T00:02:56;6.70;65.80
68922;DHT22;55959;51.244;5.724;2023-02-15T00:05:22;6.60;65.70
68922;DHT22;55959;51.244;5.724;2023-02-15T00:07:48;6.70;65.80
68922;DHT22;55959;51.244;5.724;2023-02-15T00:10:13;6.60;65.80
68922;DHT22;55959;51.244;5.724;2023-02-15T00:12:39;6.60;65.80
68922;DHT22;55959;51.244;5.724;2023-02-15T00:15:05;6.60;65.90
68922;DHT22;55959;51.244;5.724;2023-02-15T00:17:31;6.50;65.90
68922;DHT22;55959;51.244;5.724;2023-02-15T00:19:57;6.50;65.90
68922;DHT22;55959;51.244;5.724;2023-02-15T00:22:22;6.50;66.00
68922;DHT22;55959;51.244;5.724;2023-02-15T00:24:48;6.50;66.10
68922;DHT22;55959;51.244;5.724;2023-02-15T00:27:15;6.40;66.10
68922;DHT22;55959;51.244;5.724;2023-02-15T00:29:41;6.40;66.10
68922;DHT22;55959;51.244;5.724;2023-02-15T00:32:06;6.40;66.10
68922;DHT22;55959;51.244;5.724;2023-02-15T00:34:32;6.40;66.20
68922;DHT22;55959;51.244;5.724;2023-02-15T00:36:58;6.40;66.20
68922;DHT22;55959;51.244;5.724;2023-02-15T00:39:24;6.30;66.30
68922;DHT22;55959;51.244;5.724;2023-02-15T00:41:49;6.30;66.30
68922;DHT22;55959;51.244;5.724;2023-02-15T00:44:16;6.30;66.40
68922;DHT22;55959;51.244;5.724;2023-02-15T00:46:42;6.30;66.50
68922;DHT22;55959;51.244;5.724;2023-02-15T00:49:08;6.30;66.50
68922;DHT22;55959;51.244;5.724;2023-02-15T00:51:33;6.20;66.50
68922;DHT22;55959;51.244;5.724;2023-02-15T00:53:59;6.20;66.70
68922;DHT22;55959;51.244;5.724;2023-02-15T00:56:25;6.20;66.90
68922;DHT22;55959;51.244;5.724;2023-02-15T00:58:53;6.10;66.90
68922;DHT22;55959;51.244;5.724;2023-02-15T01:01:20;6.10;66.90
68922;DHT22;55959;51.244;5.724;2023-02-15T01:03:46;6.10;67.00
68922;DHT22;55959;51.244;5.724;2023-02-15T01:06:13;6.10;67.10
68922;DHT22;55959;51.244;5.724;2023-02-15T01:08:40;6.10;67.10
68922;DHT22;55959;51.244;5.724;2023-02-15T01:11:11;6.00;67.10
68922;DHT22;55959;51.244;5.724;2023-02-15T01:13:48;6.00;67.20
68922;DHT22;55959;51.244;5.724;2023-02-15T01:16:15;6.00;67.10
68922;DHT22;55959;51.244;5.724;2023-02-15T01:18:41;6.00;67.30
68922;DHT22;55959;51.244;5.724;2023-02-15T01:21:16;5.90;67.30
68922;DHT22;55959;51.244;5.724;2023-02-15T01:23:46;5.90;67.40
68922;DHT22;55959;51.244;5.724;2023-02-15T01:26:12;5.90;67.40
68922;DHT22;55959;51.244;5.724;2023-02-15T01:28:39;5.90;67.50
68922;DHT22;55959;51.244;5.724;2023-02-15T01:31:10;5.80;67.40
68922;DHT22;55959;51.244;5.724;2023-02-15T01:33:38;5.80;67.50
68922;DHT22;55959;51.244;5.724;2023-02-15T01:36:05;5.80;67.50
68922;DHT22;55959;51.244;5.724;2023-02-15T01:38:32;5.80;67.60
68922;DHT22;55959;51.244;5.724;2023-02-15T01:40:58;5.70;67.60
68922;DHT22;55959;51.244;5.724;2023-02-15T01:43:47;5.70;67.60
68922;DHT22;55959;51.244;5.724;2023-02-15T01:46:15;5.70;67.70
68922;DHT22;55959;51.244;5.724;2023-02-15T01:48:47;5.70;67.70
68922;DHT22;55959;51.244;5.724;2023-02-15T01:51:17;5.70;67.70
68922;DHT22;55959;51.244;5.724;2023-02-15T01:53:54;5.60;67.60
68922;DHT22;55959;51.244;5.724;2023-02-15T01:56:25;5.60;67.60
68922;DHT22;55959;51.244;5.724;2023-02-15T01:58:57;5.60;67.70
68922;DHT22;55959;51.244;5.724;2023-02-15T02:01:25;5.50;67.70
68922;DHT22;55959;51.244;5.724;2023-02-15T02:06:21;5.50;67.90
68922;DHT22;55959;51.244;5.724;2023-02-15T02:08:48;5.50;67.90
68922;DHT22;55959;51.244;5.724;2023-02-15T02:11:15;5.40;68.70
68922;DHT22;55959;51.244;5.724;2023-02-15T02:13:42;5.40;67.90
68922;DHT22;55959;51.244;5.724;2023-02-15T02:23:08;5.30;67.90
68922;DHT22;55959;51.244;5.724;2023-02-15T02:34:16;5.20;68.30
68922;DHT22;55959;51.244;5.724;2023-02-15T02:37:08;5.20;68.50
68922;DHT22;55959;51.244;5.724;2023-02-15T02:42:46;5.10;68.50
68922;DHT22;55959;51.244;5.724;2023-02-15T02:45:28;5.00;68.40
68922;DHT22;55959;51.244;5.724;2023-02-15T02:48:17;5.00;68.50
68922;DHT22;55959;51.244;5.724;2023-02-15T02:50:45;5.00;68.50
68922;DHT22;55959;51.244;5.724;2023-02-15T02:53:11;5.00;68.40
68922;DHT22;55959;51.244;5.724;2023-02-15T02:58:16;5.00;68.50
68922;DHT22;55959;51.244;5.724;2023-02-15T03:03:47;5.00;68.70
68922;DHT22;55959;51.244;5.724;2023-02-15T03:06:25;4.90;68.70
68922;DHT22;55959;51.244;5.724;2023-02-15T03:09:29;4.90;68.70
68922;DHT22;55959;51.244;5.724;2023-02-15T03:12:21;4.90;68.70
68922;DHT22;55959;51.244;5.724;2023-02-15T03:15:00;4.80;68.60
68922;DHT22;55959;51.244;5.724;2023-02-15T03:17:35;4.80;68.60
68922;DHT22;55959;51.244;5.724;2023-02-15T03:20:20;4.80;68.60
68922;DHT22;55959;51.244;5.724;2023-02-15T03:23:15;4.80;68.70
68922;DHT22;55959;51.244;5.724;2023-02-15T03:25:47;4.80;68.70
68922;DHT22;55959;51.244;5.724;2023-02-15T03:28:20;4.70;68.70
68922;DHT22;55959;51.244;5.724;2023-02-15T03:30:54;4.70;68.80
68922;DHT22;55959;51.244;5.724;2023-02-15T03:33:21;4.70;68.70
68922;DHT22;55959;51.244;5.724;2023-02-15T03:36:02;4.70;68.80
68922;DHT22;55959;51.244;5.724;2023-02-15T03:38:58;4.70;68.90
68922;DHT22;55959;51.244;5.724;2023-02-15T03:41:33;4.70;68.90
68922;DHT22;55959;51.244;5.724;2023-02-15T03:44:11;4.60;68.90
68922;DHT22;55959;51.244;5.724;2023-02-15T03:46:48;4.60;68.90
68922;DHT22;55959;51.244;5.724;2023-02-15T03:49:25;4.60;69.00
68922;DHT22;55959;51.244;5.724;2023-02-15T03:51:56;4.60;69.00
68922;DHT22;55959;51.244;5.724;2023-02-15T03:54:30;4.60;69.00
68922;DHT22;55959;51.244;5.724;2023-02-15T03:57:20;4.60;69.00
68922;DHT22;55959;51.244;5.724;2023-02-15T04:00:21;4.50;68.90
68922;DHT22;55959;51.244;5.724;2023-02-15T04:05:42;4.50;69.00
68922;DHT22;55959;51.244;5.724;2023-02-15T04:08:09;4.40;68.90
68922;DHT22;55959;51.244;5.724;2023-02-15T04:10:35;4.40;69.00
68922;DHT22;55959;51.244;5.724;2023-02-15T04:13:29;4.40;69.00
68922;DHT22;55959;51.244;5.724;2023-02-15T04:15:56;4.40;69.00
68922;DHT22;55959;51.244;5.724;2023-02-15T04:18:28;4.40;69.00
68922;DHT22;55959;51.244;5.724;2023-02-15T04:21:13;4.40;69.10
68922;DHT22;55959;51.244;5.724;2023-02-15T04:23:57;4.40;69.20
68922;DHT22;55959;51.244;5.724;2023-02-15T04:26:42;4.40;69.30
68922;DHT22;55959;51.244;5.724;2023-02-15T04:29:07;4.30;69.30
68922;DHT22;55959;51.244;5.724;2023-02-15T04:31:33;4.30;69.40
68922;DHT22;55959;51.244;5.724;2023-02-15T04:33:59;4.30;69.50
68922;DHT22;55959;51.244;5.724;2023-02-15T04:36:24;4.30;69.50
68922;DHT22;55959;51.244;5.724;2023-02-15T04:38:50;4.30;69.50
68922;DHT22;55959;51.244;5.724;2023-02-15T04:41:16;4.30;69.50
68922;DHT22;55959;51.244;5.724;2023-02-15T04:43:42;4.30;69.50
68922;DHT22;55959;51.244;5.724;2023-02-15T04:46:07;4.30;69.50
68922;DHT22;55959;51.244;5.724;2023-02-15T04:48:33;4.30;69.50
68922;DHT22;55959;51.244;5.724;2023-02-15T04:50:59;4.30;69.50
68922;DHT22;55959;51.244;5.724;2023-02-15T04:53:24;4.20;69.30
68922;DHT22;55959;51.244;5.724;2023-02-15T04:55:50;4.20;69.30
68922;DHT22;55959;51.244;5.724;2023-02-15T04:58:16;4.20;69.30
68922;DHT22;55959;51.244;5.724;2023-02-15T05:00:41;4.20;69.50
68922;DHT22;55959;51.244;5.724;2023-02-15T05:03:07;4.20;69.50
68922;DHT22;55959;51.244;5.724;2023-02-15T05:05:33;4.20;69.50
68922;DHT22;55959;51.244;5.724;2023-02-15T05:07:59;4.10;70.40
68922;DHT22;55959;51.244;5.724;2023-02-15T05:10:25;4.10;69.50
68922;DHT22;55959;51.244;5.724;2023-02-15T05:12:51;4.20;69.50
68922;DHT22;55959;51.244;5.724;2023-02-15T05:15:17;4.10;69.50
68922;DHT22;55959;51.244;5.724;2023-02-15T05:17:42;4.10;69.50
68922;DHT22;55959;51.244;5.724;2023-02-15T05:20:08;4.10;69.50
68922;DHT22;55959;51.244;5.724;2023-02-15T05:22:34;4.10;69.50
68922;DHT22;55959;51.244;5.724;2023-02-15T05:25:00;4.10;69.60
68922;DHT22;55959;51.244;5.724;2023-02-15T05:27:44;4.10;69.60
68922;DHT22;55959;51.244;5.724;2023-02-15T05:30:28;4.00;69.50
68922;DHT22;55959;51.244;5.724;2023-02-15T05:32:54;4.00;69.50
68922;DHT22;55959;51.244;5.724;2023-02-15T05:35:20;4.00;69.60
68922;DHT22;55959;51.244;5.724;2023-02-15T05:37:45;4.00;69.70
68922;DHT22;55959;51.244;5.724;2023-02-15T05:40:11;4.00;69.70
68922;DHT22;55959;51.244;5.724;2023-02-15T05:42:37;3.90;69.60
68922;DHT22;55959;51.244;5.724;2023-02-15T05:45:03;4.00;69.70
68922;DHT22;55959;51.244;5.724;2023-02-15T05:47:29;3.90;69.70
68922;DHT22;55959;51.244;5.724;2023-02-15T05:49:55;3.90;69.80
68922;DHT22;55959;51.244;5.724;2023-02-15T05:52:20;3.90;69.70
68922;DHT22;55959;51.244;5.724;2023-02-15T05:54:46;3.90;69.70
68922;DHT22;55959;51.244;5.724;2023-02-15T05:57:12;3.90;69.70
68922;DHT22;55959;51.244;5.724;2023-02-15T05:59:38;3.90;69.80
68922;DHT22;55959;51.244;5.724;2023-02-15T06:02:04;3.90;69.80
68922;DHT22;55959;51.244;5.724;2023-02-15T06:04:31;3.80;69.70
68922;DHT22;55959;51.244;5.724;2023-02-15T06:06:57;3.80;69.70
68922;DHT22;55959;51.244;5.724;2023-02-15T06:09:23;3.80;69.70
68922;DHT22;55959;51.244;5.724;2023-02-15T06:11:48;3.80;69.80
68922;DHT22;55959;51.244;5.724;2023-02-15T06:14:14;3.80;69.80
68922;DHT22;55959;51.244;5.724;2023-02-15T06:16:40;3.80;69.90
68922;DHT22;55959;51.244;5.724;2023-02-15T06:19:06;3.70;70.00
68922;DHT22;55959;51.244;5.724;2023-02-15T06:21:32;3.70;70.20
68922;DHT22;55959;51.244;5.724;2023-02-15T06:23:57;3.70;70.40
68922;DHT22;55959;51.244;5.724;2023-02-15T06:26:23;3.80;70.70
68922;DHT22;55959;51.244;5.724;2023-02-15T06:28:50;3.70;70.80
68922;DHT22;55959;51.244;5.724;2023-02-15T06:31:16;3.70;71.10
68922;DHT22;55959;51.244;5.724;2023-02-15T06:33:41;3.70;71.50
68922;DHT22;55959;51.244;5.724;2023-02-15T06:36:07;3.70;71.80
68922;DHT22;55959;51.244;5.724;2023-02-15T06:38:34;3.80;72.20
68922;DHT22;55959;51.244;5.724;2023-02-15T06:40:59;3.80;72.40
68922;DHT22;55959;51.244;5.724;2023-02-15T06:43:25;3.80;72.50
68922;DHT22;55959;51.244;5.724;2023-02-15T06:45:52;3.80;72.70
68922;DHT22;55959;51.244;5.724;2023-02-15T06:48:18;3.80;72.70
68922;DHT22;55959;51.244;5.724;2023-02-15T06:50:43;3.80;72.80
68922;DHT22;55959;51.244;5.724;2023-02-15T06:53:09;3.90;72.70
68922;DHT22;55959;51.244;5.724;2023-02-15T06:55:35;3.90;72.70
68922;DHT22;55959;51.244;5.724;2023-02-15T06:58:00;3.90;72.70
68922;DHT22;55959;51.244;5.724;2023-02-15T07:00:26;3.90;72.70
68922;DHT22;55959;51.244;5.724;2023-02-15T07:02:57;3.90;72.70
68922;DHT22;55959;51.244;5.724;2023-02-15T07:05:25;3.90;72.80
68922;DHT22;55959;51.244;5.724;2023-02-15T07:07:59;3.80;72.90
68922;DHT22;55959;51.244;5.724;2023-02-15T07:10:26;3.90;73.00
68922;DHT22;55959;51.244;5.724;2023-02-15T07:12:52;3.90;73.10
68922;DHT22;55959;51.244;5.724;2023-02-15T07:15:19;3.90;73.20
68922;DHT22;55959;51.244;5.724;2023-02-15T07:17:48;3.90;73.30
68922;DHT22;55959;51.244;5.724;2023-02-15T07:20:17;3.90;73.50
68922;DHT22;55959;51.244;5.724;2023-02-15T07:22:47;3.90;73.60
68922;DHT22;55959;51.244;5.724;2023-02-15T07:25:13;3.90;73.70
68922;DHT22;55959;51.244;5.724;2023-02-15T07:27:40;3.90;73.90
68922;DHT22;55959;51.244;5.724;2023-02-15T07:30:08;4.00;74.00
68922;DHT22;55959;51.244;5.724;2023-02-15T07:32:35;4.00;74.20
68922;DHT22;55959;51.244;5.724;2023-02-15T07:35:01;4.00;74.20
68922;DHT22;55959;51.244;5.724;2023-02-15T07:37:27;4.00;74.30
68922;DHT22;55959;51.244;5.724;2023-02-15T07:39:53;4.00;74.20
68922;DHT22;55959;51.244;5.724;2023-02-15T07:42:19;4.00;74.30
68922;DHT22;55959;51.244;5.724;2023-02-15T07:44:46;4.10;74.60
68922;DHT22;55959;51.244;5.724;2023-02-15T07:47:12;4.10;74.80
68922;DHT22;55959;51.244;5.724;2023-02-15T07:49:38;4.10;75.10
68922;DHT22;55959;51.244;5.724;2023-02-15T07:52:04;4.10;75.30
68922;DHT22;55959;51.244;5.724;2023-02-15T07:54:29;4.20;75.30
68922;DHT22;55959;51.244;5.724;2023-02-15T07:56:55;4.20;75.40
68922;DHT22;55959;51.244;5.724;2023-02-15T07:59:21;4.20;75.30
68922;DHT22;55959;51.244;5.724;2023-02-15T08:01:46;4.30;75.40
68922;DHT22;55959;51.244;5.724;2023-02-15T08:04:12;4.30;75.50
68922;DHT22;55959;51.244;5.724;2023-02-15T08:06:38;4.30;75.70
68922;DHT22;55959;51.244;5.724;2023-02-15T08:09:06;4.40;75.80
68922;DHT22;55959;51.244;5.724;2023-02-15T08:11:35;4.40;75.90
68922;DHT22;55959;51.244;5.724;2023-02-15T08:16:40;4.50;76.10
68922;DHT22;55959;51.244;5.724;2023-02-15T08:22:10;4.50;76.10
68922;DHT22;55959;51.244;5.724;2023-02-15T08:24:37;4.50;76.20
68922;DHT22;55959;51.244;5.724;2023-02-15T08:27:05;4.60;76.20
68922;DHT22;55959;51.244;5.724;2023-02-15T08:29:32;4.60;76.30
68922;DHT22;55959;51.244;5.724;2023-02-15T08:32:02;4.60;76.30
68922;DHT22;55959;51.244;5.724;2023-02-15T08:34:35;4.70;76.50
68922;DHT22;55959;51.244;5.724;2023-02-15T08:37:03;4.70;76.60
68922;DHT22;55959;51.244;5.724;2023-02-15T08:39:28;4.70;76.70
68922;DHT22;55959;51.244;5.724;2023-02-15T08:41:54;4.80;76.70
68922;DHT22;55959;51.244;5.724;2023-02-15T08:44:20;4.80;76.70
68922;DHT22;55959;51.244;5.724;2023-02-15T08:46:47;4.90;76.80
68922;DHT22;55959;51.244;5.724;2023-02-15T08:49:19;4.90;76.90
68922;DHT22;55959;51.244;5.724;2023-02-15T08:51:46;4.90;76.90
68922;DHT22;55959;51.244;5.724;2023-02-15T08:54:15;5.00;77.00
68922;DHT22;55959;51.244;5.724;2023-02-15T08:56:44;5.10;77.10
68922;DHT22;55959;51.244;5.724;2023-02-15T08:59:21;5.10;77.10
68922;DHT22;55959;51.244;5.724;2023-02-15T09:01:49;5.20;77.20
68922;DHT22;55959;51.244;5.724;2023-02-15T09:04:15;5.20;77.20
68922;DHT22;55959;51.244;5.724;2023-02-15T09:06:43;5.20;77.20
68922;DHT22;55959;51.244;5.724;2023-02-15T09:09:11;5.30;77.20
68922;DHT22;55959;51.244;5.724;2023-02-15T09:11:38;5.40;77.30
68922;DHT22;55959;51.244;5.724;2023-02-15T09:14:08;5.50;77.30
68922;DHT22;55959;51.244;5.724;2023-02-15T09:16:43;5.50;77.30
68922;DHT22;55959;51.244;5.724;2023-02-15T09:19:15;5.50;77.20
68922;DHT22;55959;51.244;5.724;2023-02-15T09:21:42;5.60;77.30
68922;DHT22;55959;51.244;5.724;2023-02-15T09:24:09;5.70;77.30
68922;DHT22;55959;51.244;5.724;2023-02-15T09:26:39;5.70;77.30
68922;DHT22;55959;51.244;5.724;2023-02-15T09:29:10;5.80;77.40
68922;DHT22;55959;51.244;5.724;2023-02-15T09:31:40;5.90;77.50
68922;DHT22;55959;51.244;5.724;2023-02-15T09:34:09;6.00;77.60
68922;DHT22;55959;51.244;5.724;2023-02-15T09:36:38;6.00;77.50
68922;DHT22;55959;51.244;5.724;2023-02-15T09:56:09;6.60;77.70
68922;DHT22;55959;51.244;5.724;2023-02-15T10:04:53;6.80;77.90
68922;DHT22;55959;51.244;5.724;2023-02-15T10:07:48;6.90;77.80
68922;DHT22;55959;51.244;5.724;2023-02-15T10:20:28;7.30;77.70
68922;DHT22;55959;51.244;5.724;2023-02-15T10:23:41;7.40;77.70
68922;DHT22;55959;51.244;5.724;2023-02-15T10:26:19;7.60;77.70
68922;DHT22;55959;51.244;5.724;2023-02-15T10:31:34;7.80;77.60
68922;DHT22;55959;51.244;5.724;2023-02-15T10:34:29;7.90;77.40
68922;DHT22;55959;51.244;5.724;2023-02-15T10:51:11;8.60;76.00
68922;DHT22;55959;51.244;5.724;2023-02-15T11:02:36;9.10;75.50
68922;DHT22;55959;51.244;5.724;2023-02-15T11:08:03;9.30;75.40
68922;DHT22;55959;51.244;5.724;2023-02-15T11:10:43;9.40;75.20
68922;DHT22;55959;51.244;5.724;2023-02-15T11:13:16;9.50;74.80
68922;DHT22;55959;51.244;5.724;2023-02-15T11:15:50;9.60;74.60
68922;DHT22;55959;51.244;5.724;2023-02-15T11:23:35;9.90;73.30
68922;DHT22;55959;51.244;5.724;2023-02-15T11:26:16;10.00;73.00
68922;DHT22;55959;51.244;5.724;2023-02-15T11:28:59;10.10;72.60
68922;DHT22;55959;51.244;5.724;2023-02-15T11:31:54;10.30;72.50
68922;DHT22;55959;51.244;5.724;2023-02-15T11:34:29;10.40;73.00
68922;DHT22;55959;51.244;5.724;2023-02-15T11:37:14;10.50;72.20
68922;DHT22;55959;51.244;5.724;2023-02-15T11:39:42;10.60;72.40
68922;DHT22;55959;51.244;5.724;2023-02-15T11:42:19;10.70;72.50
68922;DHT22;55959;51.244;5.724;2023-02-15T11:44:55;10.80;72.20
68922;DHT22;55959;51.244;5.724;2023-02-15T11:47:26;10.90;72.00
68922;DHT22;55959;51.244;5.724;2023-02-15T11:49:52;11.10;71.80
68922;DHT22;55959;51.244;5.724;2023-02-15T11:52:18;11.10;71.60
68922;DHT22;55959;51.244;5.724;2023-02-15T11:54:47;11.30;71.50
68922;DHT22;55959;51.244;5.724;2023-02-15T11:57:27;11.40;71.10
68922;DHT22;55959;51.244;5.724;2023-02-15T12:02:37;11.60;70.50
68922;DHT22;55959;51.244;5.724;2023-02-15T12:05:11;11.80;70.40
68922;DHT22;55959;51.244;5.724;2023-02-15T12:07:45;11.90;70.30
68922;DHT22;55959;51.244;5.724;2023-02-15T12:10:26;12.00;69.70
68922;DHT22;55959;51.244;5.724;2023-02-15T12:13:15;12.10;69.70
68922;DHT22;55959;51.244;5.724;2023-02-15T12:15:48;12.30;69.10
68922;DHT22;55959;51.244;5.724;2023-02-15T12:18:31;12.40;68.70
68922;DHT22;55959;51.244;5.724;2023-02-15T12:21:01;12.50;68.20
68922;DHT22;55959;51.244;5.724;2023-02-15T12:23:50;12.60;68.10
68922;DHT22;55959;51.244;5.724;2023-02-15T12:26:29;12.70;67.30
68922;DHT22;55959;51.244;5.724;2023-02-15T12:29:01;12.90;67.00
68922;DHT22;55959;51.244;5.724;2023-02-15T12:31:40;12.90;66.40
68922;DHT22;55959;51.244;5.724;2023-02-15T12:34:22;13.00;66.60
68922;DHT22;55959;51.244;5.724;2023-02-15T12:36:53;13.20;66.40
68922;DHT22;55959;51.244;5.724;2023-02-15T12:39:29;13.20;65.80
68922;DHT22;55959;51.244;5.724;2023-02-15T12:44:35;13.40;64.90
68922;DHT22;55959;51.244;5.724;2023-02-15T12:49:37;13.70;65.10
68922;DHT22;55959;51.244;5.724;2023-02-15T12:52:26;13.80;64.60
68922;DHT22;55959;51.244;5.724;2023-02-15T12:54:52;13.90;64.20
68922;DHT22;55959;51.244;5.724;2023-02-15T12:57:29;14.00;64.30
68922;DHT22;55959;51.244;5.724;2023-02-15T13:02:31;14.20;62.60
68922;DHT22;55959;51.244;5.724;2023-02-15T13:07:50;14.40;60.60
68922;DHT22;55959;51.244;5.724;2023-02-15T13:10:31;14.50;60.30
68922;DHT22;55959;51.244;5.724;2023-02-15T13:12:59;14.60;59.90
68922;DHT22;55959;51.244;5.724;2023-02-15T13:15:37;14.60;59.20
68922;DHT22;55959;51.244;5.724;2023-02-15T13:18:08;14.70;59.20
68922;DHT22;55959;51.244;5.724;2023-02-15T13:20:42;14.80;58.70
68922;DHT22;55959;51.244;5.724;2023-02-15T13:23:28;14.90;57.90
68922;DHT22;55959;51.244;5.724;2023-02-15T13:26:04;15.00;57.20
68922;DHT22;55959;51.244;5.724;2023-02-15T13:28:44;15.10;55.30
68922;DHT22;55959;51.244;5.724;2023-02-15T13:31:15;15.10;55.50
68922;DHT22;55959;51.244;5.724;2023-02-15T13:33:49;15.20;55.70
68922;DHT22;55959;51.244;5.724;2023-02-15T14:00:04;15.60;54.10
68922;DHT22;55959;51.244;5.724;2023-02-15T14:03:15;15.70;54.20
68922;DHT22;55959;51.244;5.724;2023-02-15T14:10:00;15.80;54.00
68922;DHT22;55959;51.244;5.724;2023-02-15T14:15:19;15.90;53.30
68922;DHT22;55959;51.244;5.724;2023-02-15T14:29:54;16.00;52.20
68922;DHT22;55959;51.244;5.724;2023-02-15T14:35:50;16.00;52.00
68922;DHT22;55959;51.244;5.724;2023-02-15T14:41:37;16.10;52.50
68922;DHT22;55959;51.244;5.724;2023-02-15T14:47:23;16.10;52.20
68922;DHT22;55959;51.244;5.724;2023-02-15T14:49:52;16.10;51.80
68922;DHT22;55959;51.244;5.724;2023-02-15T14:52:18;16.10;51.70
68922;DHT22;55959;51.244;5.724;2023-02-15T14:59:53;16.10;51.70
68922;DHT22;55959;51.244;5.724;2023-02-15T15:02:41;16.10;51.80
68922;DHT22;55959;51.244;5.724;2023-02-15T15:05:14;16.10;51.90
68922;DHT22;55959;51.244;5.724;2023-02-15T15:18:06;16.10;51.90
68922;DHT22;55959;51.244;5.724;2023-02-15T15:20:47;16.10;51.80
68922;DHT22;55959;51.244;5.724;2023-02-15T15:50:52;15.90;52.30
68922;DHT22;55959;51.244;5.724;2023-02-15T15:53:27;15.80;51.90
68922;DHT22;55959;51.244;5.724;2023-02-15T15:55:59;15.80;52.10
68922;DHT22;55959;51.244;5.724;2023-02-15T15:58:28;15.80;52.20
68922;DHT22;55959;51.244;5.724;2023-02-15T16:01:04;15.70;52.20
68922;DHT22;55959;51.244;5.724;2023-02-15T16:03:32;15.70;52.20
68922;DHT22;55959;51.244;5.724;2023-02-15T16:05:58;15.70;52.20
68922;DHT22;55959;51.244;5.724;2023-02-15T16:08:34;15.60;52.20
68922;DHT22;55959;51.244;5.724;2023-02-15T16:11:29;15.60;52.30
68922;DHT22;55959;51.244;5.724;2023-02-15T16:13:55;15.60;52.60
68922;DHT22;55959;51.244;5.724;2023-02-15T16:16:23;15.50;52.60
68922;DHT22;55959;51.244;5.724;2023-02-15T16:18:54;15.50;52.70
68922;DHT22;55959;51.244;5.724;2023-02-15T16:21:29;15.40;52.80
68922;DHT22;55959;51.244;5.724;2023-02-15T16:27:25;15.40;52.80
68922;DHT22;55959;51.244;5.724;2023-02-15T16:35:32;15.30;53.00
68922;DHT22;55959;51.244;5.724;2023-02-15T16:37:58;15.30;53.00
68922;DHT22;55959;51.244;5.724;2023-02-15T16:42:51;15.20;53.10
68922;DHT22;55959;51.244;5.724;2023-02-15T16:45:21;15.20;53.10
68922;DHT22;55959;51.244;5.724;2023-02-15T16:47:50;15.10;53.10
68922;DHT22;55959;51.244;5.724;2023-02-15T16:52:56;15.00;53.10
68922;DHT22;55959;51.244;5.724;2023-02-15T16:55:38;15.00;53.10
68922;DHT22;55959;51.244;5.724;2023-02-15T16:58:06;15.00;53.10
68922;DHT22;55959;51.244;5.724;2023-02-15T17:00:38;15.00;53.10
68922;DHT22;55959;51.244;5.724;2023-02-15T17:05:51;14.90;53.00
68922;DHT22;55959;51.244;5.724;2023-02-15T17:08:30;14.80;52.90
68922;DHT22;55959;51.244;5.724;2023-02-15T17:11:33;14.80;53.10
68922;DHT22;55959;51.244;5.724;2023-02-15T17:16:35;14.70;53.20
68922;DHT22;55959;51.244;5.724;2023-02-15T17:19:07;14.70;53.20
68922;DHT22;55959;51.244;5.724;2023-02-15T17:21:41;14.60;53.30
68922;DHT22;55959;51.244;5.724;2023-02-15T17:24:22;14.50;53.30
68922;DHT22;55959;51.244;5.724;2023-02-15T17:26:55;14.50;53.40
68922;DHT22;55959;51.244;5.724;2023-02-15T17:29:36;14.50;53.50
68922;DHT22;55959;51.244;5.724;2023-02-15T17:32:04;14.40;54.30
68922;DHT22;55959;51.244;5.724;2023-02-15T17:34:42;14.40;53.70
68922;DHT22;55959;51.244;5.724;2023-02-15T17:37:41;14.30;53.80
68922;DHT22;55959;51.244;5.724;2023-02-15T17:40:24;14.30;53.80
68922;DHT22;55959;51.244;5.724;2023-02-15T17:42:52;14.20;53.90
68922;DHT22;55959;51.244;5.724;2023-02-15T17:45:18;14.20;53.90
68922;DHT22;55959;51.244;5.724;2023-02-15T17:47:46;14.20;54.00
68922;DHT22;55959;51.244;5.724;2023-02-15T17:52:44;14.10;54.20
68922;DHT22;55959;51.244;5.724;2023-02-15T17:55:16;14.00;54.20
68922;DHT22;55959;51.244;5.724;2023-02-15T17:58:01;14.00;54.30
68922;DHT22;55959;51.244;5.724;2023-02-15T18:00:29;13.90;54.30
68922;DHT22;55959;51.244;5.724;2023-02-15T18:03:14;13.90;54.40
68922;DHT22;55959;51.244;5.724;2023-02-15T18:05:59;13.80;54.60
68922;DHT22;55959;51.244;5.724;2023-02-15T18:08:43;13.80;54.70
68922;DHT22;55959;51.244;5.724;2023-02-15T18:11:27;13.70;54.70
68922;DHT22;55959;51.244;5.724;2023-02-15T18:14:07;13.70;54.80
68922;DHT22;55959;51.244;5.724;2023-02-15T18:16:36;13.60;54.90
68922;DHT22;55959;51.244;5.724;2023-02-15T18:19:05;13.60;55.10
68922;DHT22;55959;51.244;5.724;2023-02-15T18:21:35;13.50;55.10
68922;DHT22;55959;51.244;5.724;2023-02-15T18:24:00;13.50;55.30
68922;DHT22;55959;51.244;5.724;2023-02-15T18:26:27;13.40;55.30
68922;DHT22;55959;51.244;5.724;2023-02-15T18:28:53;13.40;55.40
68922;DHT22;55959;51.244;5.724;2023-02-15T18:31:20;13.30;55.50
68922;DHT22;55959;51.244;5.724;2023-02-15T18:33:54;13.30;55.50
68922;DHT22;55959;51.244;5.724;2023-02-15T18:36:29;13.30;55.60
68922;DHT22;55959;51.244;5.724;2023-02-15T18:38:59;13.30;55.70
68922;DHT22;55959;51.244;5.724;2023-02-15T18:41:27;13.20;55.70
68922;DHT22;55959;51.244;5.724;2023-02-15T18:43:53;13.20;55.80
68922;DHT22;55959;51.244;5.724;2023-02-15T18:46:20;13.20;55.90
68922;DHT22;55959;51.244;5.724;2023-02-15T18:48:46;13.10;55.90
68922;DHT22;55959;51.244;5.724;2023-02-15T18:51:17;13.10;55.90
68922;DHT22;55959;51.244;5.724;2023-02-15T18:53:45;13.10;56.00
68922;DHT22;55959;51.244;5.724;2023-02-15T18:56:17;13.10;56.10
68922;DHT22;55959;51.244;5.724;2023-02-15T18:58:44;13.00;56.10
68922;DHT22;55959;51.244;5.724;2023-02-15T19:01:19;13.00;56.20
68922;DHT22;55959;51.244;5.724;2023-02-15T19:03:50;13.00;56.40
68922;DHT22;55959;51.244;5.724;2023-02-15T19:06:20;12.90;56.40
68922;DHT22;55959;51.244;5.724;2023-02-15T19:08:51;12.90;56.50
68922;DHT22;55959;51.244;5.724;2023-02-15T19:11:19;12.90;56.60
68922;DHT22;55959;51.244;5.724;2023-02-15T19:13:48;12.80;57.30
68922;DHT22;55959;51.244;5.724;2023-02-15T19:16:33;12.80;56.80
68922;DHT22;55959;51.244;5.724;2023-02-15T19:19:00;12.80;56.90
68922;DHT22;55959;51.244;5.724;2023-02-15T19:21:30;12.70;56.90
68922;DHT22;55959;51.244;5.724;2023-02-15T19:24:06;12.70;56.90
68922;DHT22;55959;51.244;5.724;2023-02-15T19:26:39;12.70;57.00
68922;DHT22;55959;51.244;5.724;2023-02-15T19:29:06;12.70;57.00
68922;DHT22;55959;51.244;5.724;2023-02-15T19:31:31;12.60;56.90
68922;DHT22;55959;51.244;5.724;2023-02-15T19:33:57;12.60;56.90
68922;DHT22;55959;51.244;5.724;2023-02-15T19:36:23;12.60;57.00
68922;DHT22;55959;51.244;5.724;2023-02-15T19:38:50;12.60;57.00
68922;DHT22;55959;51.244;5.724;2023-02-15T19:41:32;12.50;57.00
68922;DHT22;55959;51.244;5.724;2023-02-15T19:43:59;12.50;57.10
68922;DHT22;55959;51.244;5.724;2023-02-15T19:46:25;12.50;57.10
68922;DHT22;55959;51.244;5.724;2023-02-15T19:48:52;12.40;57.20
68922;DHT22;55959;51.244;5.724;2023-02-15T19:51:19;12.40;57.20
68922;DHT22;55959;51.244;5.724;2023-02-15T19:53:46;12.40;57.30
68922;DHT22;55959;51.244;5.724;2023-02-15T19:56:17;12.40;57.40
68922;DHT22;55959;51.244;5.724;2023-02-15T19:58:46;12.30;57.40